createdAt,value
2018-12-27T00:00:51.400Z,2.70
2018-12-27T00:03:20.242Z,2.70
2018-12-27T00:05:49.412Z,2.70
2018-12-27T00:08:18.253Z,2.70
2018-12-27T00:10:47.216Z,2.60
2018-12-27T00:13:16.242Z,2.60
2018-12-27T00:15:45.260Z,2.60
2018-12-27T00:18:14.278Z,2.70
2018-12-27T00:20:43.334Z,2.60
2018-12-27T00:23:12.380Z,2.60
2018-12-27T00:25:41.374Z,2.60
2018-12-27T00:28:10.342Z,2.60
2018-12-27T00:30:39.698Z,2.50
2018-12-27T00:33:08.858Z,2.50
2018-12-27T00:35:38.256Z,2.50
2018-12-27T00:38:07.564Z,2.50
2018-12-27T00:40:36.827Z,2.50
2018-12-27T00:43:06.021Z,2.50
2018-12-27T00:45:35.363Z,2.50
2018-12-27T00:48:04.646Z,2.50
2018-12-27T00:50:33.993Z,2.50
2018-12-27T00:53:03.326Z,2.50
2018-12-27T00:55:32.655Z,2.50
2018-12-27T00:58:02.080Z,2.50
2018-12-27T01:00:31.453Z,2.50
2018-12-27T01:03:00.834Z,2.50
2018-12-27T01:05:30.187Z,2.50
2018-12-27T01:07:59.425Z,2.50
2018-12-27T01:10:28.786Z,2.50
2018-12-27T01:12:58.173Z,2.50
2018-12-27T01:15:27.425Z,2.50
2018-12-27T01:17:56.723Z,2.40
2018-12-27T01:20:26.033Z,2.40
2018-12-27T01:22:55.382Z,2.40
2018-12-27T01:25:43.738Z,2.30
2018-12-27T01:28:13.234Z,2.30
2018-12-27T01:30:42.706Z,2.20
2018-12-27T01:33:18.524Z,2.20
2018-12-27T01:35:43.209Z,2.20
2018-12-27T01:38:31.555Z,2.20
2018-12-27T01:41:00.949Z,2.10
2018-12-27T01:43:30.318Z,2.00
2018-12-27T01:45:59.856Z,2.00
2018-12-27T01:48:29.134Z,1.90
2018-12-27T01:50:58.606Z,1.90
2018-12-27T01:53:27.970Z,1.90
2018-12-27T01:55:57.160Z,1.90
2018-12-27T01:58:26.578Z,1.90
2018-12-27T02:00:55.944Z,1.80
2018-12-27T02:03:26.638Z,1.70
2018-12-27T02:05:56.240Z,1.70
2018-12-27T02:08:25.586Z,1.60
2018-12-27T02:10:54.914Z,1.60
2018-12-27T02:13:24.101Z,1.60
2018-12-27T02:15:53.464Z,1.60
2018-12-27T02:18:22.869Z,1.60
2018-12-27T02:20:52.198Z,1.60
2018-12-27T02:23:21.596Z,1.60
2018-12-27T02:25:50.923Z,1.60
2018-12-27T02:28:20.312Z,1.60
2018-12-27T02:30:49.702Z,1.50
2018-12-27T02:33:19.118Z,1.50
2018-12-27T02:35:48.575Z,1.50
2018-12-27T02:38:17.838Z,1.50
2018-12-27T02:40:47.137Z,1.50
2018-12-27T02:43:16.404Z,1.50
2018-12-27T02:45:45.777Z,1.40
2018-12-27T02:48:15.147Z,1.40
2018-12-27T02:50:44.574Z,1.40
2018-12-27T02:53:14.214Z,1.40
2018-12-27T02:55:43.598Z,1.40
2018-12-27T02:58:12.955Z,1.40
2018-12-27T03:00:42.227Z,1.40
2018-12-27T03:03:11.525Z,1.40
2018-12-27T03:05:40.982Z,1.40
2018-12-27T03:08:29.269Z,1.40
2018-12-27T03:10:58.605Z,1.40
2018-12-27T03:13:27.979Z,1.40
2018-12-27T03:15:57.453Z,1.30
2018-12-27T03:18:26.777Z,1.40
2018-12-27T03:20:56.185Z,1.30
2018-12-27T03:23:25.482Z,1.40
2018-12-27T03:25:54.741Z,1.40
2018-12-27T03:28:24.088Z,1.40
2018-12-27T03:30:53.447Z,1.40
2018-12-27T03:33:22.870Z,1.40
2018-12-27T03:35:52.252Z,1.40
2018-12-27T03:38:21.567Z,1.40
2018-12-27T03:40:50.760Z,1.40
2018-12-27T03:43:20.269Z,1.40
2018-12-27T03:45:49.479Z,1.40
2018-12-27T03:48:18.897Z,1.40
2018-12-27T03:50:48.234Z,1.30
2018-12-27T03:53:17.793Z,1.30
2018-12-27T03:55:47.185Z,1.30
2018-12-27T03:58:16.528Z,1.30
2018-12-27T04:00:45.837Z,1.30
2018-12-27T04:03:15.182Z,1.20
2018-12-27T04:05:44.618Z,1.20
2018-12-27T04:08:14.054Z,1.20
2018-12-27T04:10:43.403Z,1.30
2018-12-27T04:13:12.733Z,1.30
2018-12-27T04:15:41.764Z,1.30
2018-12-27T04:18:10.784Z,1.30
2018-12-27T04:20:39.775Z,1.20
2018-12-27T04:23:08.785Z,1.20
2018-12-27T04:25:37.858Z,1.20
2018-12-27T04:28:06.850Z,1.10
2018-12-27T04:30:35.900Z,1.10
2018-12-27T04:33:05.852Z,1.00
2018-12-27T04:35:34.777Z,1.00
2018-12-27T04:38:03.787Z,1.00
2018-12-27T04:40:32.853Z,1.00
2018-12-27T04:43:01.978Z,1.00
2018-12-27T04:45:30.992Z,1.00
2018-12-27T04:47:59.902Z,0.90
2018-12-27T04:50:28.829Z,0.90
2018-12-27T04:52:58.159Z,0.90
2018-12-27T04:55:27.233Z,0.90
2018-12-27T04:57:56.231Z,0.80
2018-12-27T05:00:25.265Z,0.80
2018-12-27T05:03:13.471Z,0.80
2018-12-27T05:05:42.453Z,0.90
2018-12-27T05:08:11.445Z,0.80
2018-12-27T05:10:40.479Z,0.90
2018-12-27T05:13:09.516Z,0.90
2018-12-27T05:15:38.605Z,1.00
2018-12-27T05:18:07.651Z,1.00
2018-12-27T05:20:36.538Z,1.00
2018-12-27T05:23:05.527Z,1.00
2018-12-27T05:25:34.590Z,1.00
2018-12-27T05:28:03.785Z,1.00
2018-12-27T05:30:32.763Z,1.00
2018-12-27T05:33:01.763Z,1.00
2018-12-27T05:35:30.726Z,1.00
2018-12-27T05:37:59.620Z,1.00
2018-12-27T05:40:28.685Z,1.00
2018-12-27T05:42:57.696Z,1.00
2018-12-27T05:45:26.687Z,0.90
2018-12-27T05:47:55.706Z,0.90
2018-12-27T05:50:24.832Z,0.90
2018-12-27T05:52:54.260Z,0.90
2018-12-27T05:55:23.340Z,1.00
2018-12-27T05:57:52.516Z,1.00
2018-12-27T06:00:21.779Z,1.00
2018-12-27T06:02:50.689Z,1.00
2018-12-27T06:05:19.644Z,1.00
2018-12-27T06:07:48.554Z,0.90
2018-12-27T06:10:17.510Z,0.90
2018-12-27T06:12:46.747Z,0.90
2018-12-27T06:15:15.747Z,0.90
2018-12-27T06:17:44.654Z,0.90
2018-12-27T06:20:13.683Z,1.00
2018-12-27T06:22:42.775Z,0.90
2018-12-27T06:25:11.807Z,0.90
2018-12-27T06:27:40.811Z,0.90
2018-12-27T06:30:09.837Z,0.90
2018-12-27T06:32:38.869Z,0.90
2018-12-27T06:35:07.955Z,0.90
2018-12-27T06:37:37.167Z,1.00
2018-12-27T06:40:06.303Z,1.00
2018-12-27T06:42:35.400Z,1.00
2018-12-27T06:45:04.818Z,1.00
2018-12-27T06:47:33.777Z,1.00
2018-12-27T06:50:05.279Z,1.00
2018-12-27T06:52:34.352Z,1.10
2018-12-27T06:55:03.549Z,1.10
2018-12-27T06:57:32.603Z,1.10
2018-12-27T07:00:01.674Z,1.10
2018-12-27T07:02:30.692Z,1.10
2018-12-27T07:04:59.858Z,1.20
2018-12-27T07:07:28.804Z,1.20
2018-12-27T07:09:57.912Z,1.20
2018-12-27T07:12:26.968Z,1.20
2018-12-27T07:14:56.002Z,1.20
2018-12-27T07:17:24.912Z,1.20
2018-12-27T07:19:54.004Z,1.20
2018-12-27T07:22:22.992Z,1.20
2018-12-27T07:24:51.932Z,1.20
2018-12-27T07:27:21.036Z,1.20
2018-12-27T07:29:49.988Z,1.20
2018-12-27T07:32:19.008Z,1.20
2018-12-27T07:34:48.097Z,1.20
2018-12-27T07:37:17.106Z,1.20
2018-12-27T07:39:46.080Z,1.20
2018-12-27T07:42:15.056Z,1.20
2018-12-27T07:44:44.223Z,1.20
2018-12-27T07:47:13.155Z,1.20
2018-12-27T07:49:42.187Z,1.20
2018-12-27T07:52:11.166Z,1.20
2018-12-27T07:54:40.284Z,1.20
2018-12-27T07:57:09.414Z,1.20
2018-12-27T07:59:38.445Z,1.20
2018-12-27T08:02:07.802Z,1.20
2018-12-27T08:04:36.809Z,1.20
2018-12-27T08:07:05.909Z,1.30
2018-12-27T08:09:34.848Z,1.30
2018-12-27T08:12:03.945Z,1.40
2018-12-27T08:14:32.921Z,1.40
2018-12-27T08:17:01.875Z,1.40
2018-12-27T08:19:30.909Z,1.50
2018-12-27T08:21:59.981Z,1.50
2018-12-27T08:24:29.045Z,1.50
2018-12-27T08:26:58.079Z,1.60
2018-12-27T08:29:27.002Z,1.70
2018-12-27T08:31:56.093Z,1.70
2018-12-27T08:34:25.150Z,1.70
2018-12-27T08:36:54.250Z,1.70
2018-12-27T08:39:23.275Z,1.80
2018-12-27T08:41:52.329Z,1.80
2018-12-27T08:44:21.511Z,1.90
2018-12-27T08:46:50.525Z,1.90
2018-12-27T08:49:19.558Z,2.00
2018-12-27T08:51:48.660Z,2.00
2018-12-27T08:54:17.588Z,2.10
2018-12-27T08:56:46.676Z,2.10
2018-12-27T08:59:15.746Z,2.20
2018-12-27T09:01:44.839Z,2.20
2018-12-27T09:04:13.866Z,2.20
2018-12-27T09:06:42.798Z,2.30
2018-12-27T09:09:11.808Z,2.30
2018-12-27T09:11:40.974Z,2.40
2018-12-27T09:14:10.007Z,2.40
2018-12-27T09:16:38.928Z,2.50
2018-12-27T09:19:07.924Z,2.60
2018-12-27T09:21:36.856Z,2.60
2018-12-27T09:24:05.794Z,2.70
2018-12-27T09:26:34.952Z,2.80
2018-12-27T09:29:04.022Z,3.00
2018-12-27T09:31:32.964Z,3.10
2018-12-27T09:34:02.285Z,3.20
2018-12-27T09:36:31.386Z,3.20
2018-12-27T09:39:00.299Z,3.40
2018-12-27T09:41:29.204Z,3.50
2018-12-27T09:43:58.204Z,3.60
2018-12-27T09:46:27.284Z,3.60
2018-12-27T09:48:56.243Z,3.70
2018-12-27T09:51:25.240Z,3.70
2018-12-27T09:53:54.095Z,3.70
2018-12-27T09:56:23.234Z,3.80
2018-12-27T09:58:52.340Z,3.70
2018-12-27T10:01:21.520Z,3.70
2018-12-27T10:03:50.509Z,3.80
2018-12-27T10:06:19.511Z,3.80
2018-12-27T10:08:48.517Z,3.90
2018-12-27T10:11:17.537Z,3.90
2018-12-27T10:13:46.652Z,3.90
2018-12-27T10:16:15.667Z,3.80
2018-12-27T10:18:44.677Z,3.70
2018-12-27T10:21:13.622Z,3.60
2018-12-27T10:23:42.654Z,3.60
2018-12-27T10:26:11.582Z,3.70
2018-12-27T10:28:48.270Z,3.60
2018-12-27T10:31:17.378Z,3.60
2018-12-27T10:33:46.507Z,3.50
2018-12-27T10:36:15.364Z,3.50
2018-12-27T10:38:44.405Z,3.40
2018-12-27T10:41:13.328Z,3.30
2018-12-27T10:43:42.281Z,3.20
2018-12-27T10:46:11.154Z,3.20
2018-12-27T10:48:40.278Z,3.20
2018-12-27T10:51:09.313Z,3.30
2018-12-27T10:53:38.384Z,3.40
2018-12-27T10:56:07.387Z,3.50
2018-12-27T10:58:36.730Z,3.60
2018-12-27T11:01:05.778Z,3.70
2018-12-27T11:03:34.885Z,3.60
2018-12-27T11:06:23.037Z,3.60
2018-12-27T11:08:52.139Z,3.70
2018-12-27T11:11:21.244Z,3.90
2018-12-27T11:13:50.277Z,4.10
2018-12-27T11:16:21.264Z,4.20
2018-12-27T11:18:50.186Z,4.30
2018-12-27T11:21:19.091Z,4.40
2018-12-27T11:23:48.074Z,4.40
2018-12-27T11:26:17.333Z,4.40
2018-12-27T11:28:46.771Z,4.30
2018-12-27T11:31:15.696Z,4.40
2018-12-27T11:33:44.714Z,4.40
2018-12-27T11:36:17.234Z,4.40
2018-12-27T11:38:44.340Z,4.60
2018-12-27T11:41:13.281Z,4.60
2018-12-27T11:43:42.198Z,4.80
2018-12-27T11:46:11.205Z,5.00
2018-12-27T11:48:40.389Z,5.20
2018-12-27T11:51:09.327Z,5.20
2018-12-27T11:53:38.491Z,5.30
2018-12-27T11:56:07.523Z,5.40
2018-12-27T11:58:36.477Z,5.50
2018-12-27T12:01:05.831Z,5.60
2018-12-27T12:03:34.866Z,5.70
2018-12-27T12:06:03.994Z,5.80
2018-12-27T12:08:32.954Z,5.70
2018-12-27T12:11:01.966Z,5.60
2018-12-27T12:13:32.140Z,5.70
2018-12-27T12:16:01.222Z,5.60
2018-12-27T12:18:30.349Z,5.70
2018-12-27T12:20:59.436Z,5.60
2018-12-27T12:23:28.518Z,5.60
2018-12-27T12:25:57.622Z,5.50
2018-12-27T12:28:26.710Z,5.50
2018-12-27T12:30:56.032Z,5.40
2018-12-27T12:33:24.984Z,5.50
2018-12-27T12:35:53.905Z,5.50
2018-12-27T12:38:22.938Z,5.50
2018-12-27T12:40:51.805Z,5.60
2018-12-27T12:43:20.810Z,5.60
2018-12-27T12:45:49.726Z,5.50
2018-12-27T12:48:18.981Z,5.60
2018-12-27T12:50:47.905Z,5.60
2018-12-27T12:53:16.913Z,5.50
2018-12-27T12:55:45.883Z,5.50
2018-12-27T12:58:14.903Z,5.50
2018-12-27T13:00:44.070Z,5.50
2018-12-27T13:03:13.129Z,5.50
2018-12-27T13:05:42.059Z,5.50
2018-12-27T13:08:11.102Z,5.40
2018-12-27T13:10:40.185Z,5.40
2018-12-27T13:13:10.706Z,5.50
2018-12-27T13:15:39.868Z,5.50
2018-12-27T13:18:08.990Z,5.50
2018-12-27T13:20:38.776Z,5.40
2018-12-27T13:23:08.038Z,5.40
2018-12-27T13:25:39.784Z,5.40
2018-12-27T13:28:08.812Z,5.30
2018-12-27T13:30:37.812Z,5.30
2018-12-27T13:33:06.971Z,5.30
2018-12-27T13:35:36.124Z,5.30
2018-12-27T13:38:24.238Z,5.30
2018-12-27T13:40:53.239Z,5.20
2018-12-27T13:43:22.136Z,5.20
2018-12-27T13:45:51.223Z,5.20
2018-12-27T13:48:20.276Z,5.20
2018-12-27T13:50:49.219Z,5.30
2018-12-27T13:53:18.205Z,5.30
2018-12-27T13:55:47.227Z,5.30
2018-12-27T13:58:16.275Z,5.40
2018-12-27T14:00:45.320Z,5.40
2018-12-27T14:03:14.328Z,5.40
2018-12-27T14:05:43.274Z,5.40
2018-12-27T14:08:12.300Z,5.40
2018-12-27T14:10:41.185Z,5.40
2018-12-27T14:13:10.142Z,5.30
2018-12-27T14:15:39.303Z,5.30
2018-12-27T14:18:08.223Z,5.30
2018-12-27T14:20:37.170Z,5.30
2018-12-27T14:23:06.183Z,5.30
2018-12-27T14:25:35.127Z,5.30
2018-12-27T14:28:04.081Z,5.30
2018-12-27T14:30:33.208Z,5.30
2018-12-27T14:33:02.257Z,5.30
2018-12-27T14:35:31.185Z,5.30
2018-12-27T14:38:00.511Z,5.20
2018-12-27T14:40:29.549Z,5.20
2018-12-27T14:42:58.614Z,5.20
2018-12-27T14:45:27.671Z,5.20
2018-12-27T14:47:56.698Z,5.20
2018-12-27T14:50:25.690Z,5.20
2018-12-27T14:52:54.706Z,5.20
2018-12-27T14:55:23.647Z,5.20
2018-12-27T14:57:52.921Z,5.10
2018-12-27T15:00:21.950Z,5.10
2018-12-27T15:02:51.140Z,5.10
2018-12-27T15:05:19.991Z,5.10
2018-12-27T15:07:48.968Z,5.10
2018-12-27T15:10:17.920Z,5.00
2018-12-27T15:12:46.952Z,4.90
2018-12-27T15:15:15.994Z,4.90
2018-12-27T15:17:45.050Z,4.80
2018-12-27T15:20:14.157Z,4.80
2018-12-27T15:22:43.131Z,4.70
2018-12-27T15:25:12.322Z,4.70
2018-12-27T15:27:41.268Z,4.70
2018-12-27T15:30:10.250Z,4.70
2018-12-27T15:32:39.327Z,4.60
2018-12-27T15:35:08.438Z,4.60
2018-12-27T15:37:37.481Z,4.60
2018-12-27T15:40:06.576Z,4.50
2018-12-27T15:42:35.577Z,4.60
2018-12-27T15:45:04.724Z,4.60
2018-12-27T15:47:35.027Z,4.60
2018-12-27T15:50:04.110Z,4.50
2018-12-27T15:52:33.229Z,4.50
2018-12-27T15:55:21.745Z,4.40
2018-12-27T15:57:50.751Z,4.40
2018-12-27T16:00:19.835Z,4.40
2018-12-27T16:02:48.919Z,4.30
2018-12-27T16:05:18.079Z,4.20
2018-12-27T16:07:47.082Z,4.20
2018-12-27T16:10:16.091Z,4.20
2018-12-27T16:12:45.316Z,4.20
2018-12-27T16:15:14.460Z,4.20
2018-12-27T16:17:43.476Z,4.10
2018-12-27T16:20:12.427Z,4.10
2018-12-27T16:22:41.504Z,4.10
2018-12-27T16:25:10.567Z,4.10
2018-12-27T16:27:39.834Z,4.10
2018-12-27T16:30:09.044Z,4.10
2018-12-27T16:32:38.062Z,4.00
2018-12-27T16:35:07.467Z,3.90
2018-12-27T16:37:36.596Z,3.90
2018-12-27T16:40:06.901Z,3.80
2018-12-27T16:42:35.962Z,3.70
2018-12-27T16:45:05.124Z,3.60
2018-12-27T16:47:34.239Z,3.50
2018-12-27T16:50:03.297Z,3.50
2018-12-27T16:52:32.345Z,3.50
2018-12-27T16:55:01.342Z,3.40
2018-12-27T16:57:30.654Z,3.40
2018-12-27T16:59:59.512Z,3.40
2018-12-27T17:02:28.539Z,3.30
2018-12-27T17:04:57.855Z,3.30
2018-12-27T17:07:26.715Z,3.20
2018-12-27T17:09:55.824Z,3.20
2018-12-27T17:12:24.825Z,3.10
2018-12-27T17:14:53.946Z,3.00
2018-12-27T17:17:22.991Z,3.00
2018-12-27T17:19:52.136Z,2.90
2018-12-27T17:22:21.213Z,2.90
2018-12-27T17:24:50.274Z,2.90
2018-12-27T17:27:19.389Z,2.80
2018-12-27T17:29:48.588Z,2.80
2018-12-27T17:32:17.800Z,2.80
2018-12-27T17:34:46.854Z,2.80
2018-12-27T17:37:15.968Z,2.80
2018-12-27T17:39:45.171Z,2.70
2018-12-27T17:42:14.204Z,2.70
2018-12-27T17:44:43.155Z,2.60
2018-12-27T17:47:12.158Z,2.70
2018-12-27T17:49:41.258Z,2.60
2018-12-27T17:52:10.291Z,2.50
2018-12-27T17:54:39.493Z,2.50
2018-12-27T17:57:28.620Z,2.50
2018-12-27T17:59:57.740Z,2.50
2018-12-27T18:02:26.783Z,2.50
2018-12-27T18:04:57.840Z,2.50
2018-12-27T18:07:30.500Z,2.50
2018-12-27T18:09:58.660Z,2.50
2018-12-27T18:12:27.671Z,2.50
2018-12-27T18:15:01.618Z,2.50
2018-12-27T18:17:30.596Z,2.50
2018-12-27T18:19:59.693Z,2.60
2018-12-27T18:22:28.834Z,2.50
2018-12-27T18:24:57.929Z,2.60
2018-12-27T18:27:27.009Z,2.70
2018-12-27T18:29:55.981Z,2.70
2018-12-27T18:32:25.181Z,2.80
2018-12-27T18:34:54.351Z,2.80
2018-12-27T18:37:23.411Z,2.90
2018-12-27T18:39:52.419Z,2.80
2018-12-27T18:42:21.538Z,2.80
2018-12-27T18:44:50.541Z,2.80
2018-12-27T18:47:19.658Z,2.80
2018-12-27T18:49:48.795Z,2.80
2018-12-27T18:52:19.116Z,2.80
2018-12-27T18:54:48.198Z,2.80
2018-12-27T18:57:17.625Z,2.80
2018-12-27T18:59:46.740Z,2.90
2018-12-27T19:02:15.814Z,3.00
2018-12-27T19:04:45.102Z,2.90
2018-12-27T19:07:15.230Z,2.90
2018-12-27T19:09:44.460Z,2.90
2018-12-27T19:12:49.954Z,2.90
2018-12-27T19:15:22.428Z,2.90
2018-12-27T19:18:05.404Z,2.90
2018-12-27T19:20:37.147Z,2.80
2018-12-27T19:23:26.124Z,2.80
2018-12-27T19:25:55.090Z,2.80
2018-12-27T19:28:24.190Z,2.80
2018-12-27T19:30:53.284Z,2.70
2018-12-27T19:33:22.440Z,2.70
2018-12-27T19:35:51.656Z,2.70
2018-12-27T19:38:20.881Z,2.70
2018-12-27T19:40:50.112Z,2.60
2018-12-27T19:43:19.335Z,2.60
2018-12-27T19:45:48.652Z,2.50
2018-12-27T19:48:17.861Z,2.50
2018-12-27T19:50:47.117Z,2.40
2018-12-27T19:53:16.195Z,2.40
2018-12-27T19:55:45.557Z,2.40
2018-12-27T19:58:14.777Z,2.40
2018-12-27T20:00:43.987Z,2.40
2018-12-27T20:03:13.228Z,2.50
2018-12-27T20:05:42.397Z,2.50
2018-12-27T20:08:11.603Z,2.50
2018-12-27T20:10:40.619Z,2.50
2018-12-27T20:13:09.645Z,2.50
2018-12-27T20:15:38.705Z,2.50
2018-12-27T20:18:07.890Z,2.50
2018-12-27T20:20:36.965Z,2.40
2018-12-27T20:23:11.476Z,2.40
2018-12-27T20:25:40.551Z,2.40
2018-12-27T20:28:09.639Z,2.40
2018-12-27T20:30:38.680Z,2.40
2018-12-27T20:33:07.924Z,2.40
2018-12-27T20:35:37.008Z,2.40
2018-12-27T20:38:06.761Z,2.40
2018-12-27T20:40:36.460Z,2.40
2018-12-27T20:43:05.575Z,2.40
2018-12-27T20:45:34.708Z,2.50
2018-12-27T20:48:03.944Z,2.50
2018-12-27T20:50:33.030Z,2.50
2018-12-27T20:53:02.034Z,2.50
2018-12-27T20:55:31.152Z,2.50
2018-12-27T20:58:00.276Z,2.50
2018-12-27T21:00:48.483Z,2.50
2018-12-27T21:03:17.530Z,2.50
2018-12-27T21:05:46.721Z,2.50
2018-12-27T21:08:15.867Z,2.50
2018-12-27T21:10:44.989Z,2.40
2018-12-27T21:13:14.208Z,2.40
2018-12-27T21:15:43.352Z,2.40
2018-12-27T21:18:12.500Z,2.30
2018-12-27T21:20:41.544Z,2.30
2018-12-27T21:23:10.588Z,2.20
2018-12-27T21:25:39.707Z,2.20
2018-12-27T21:28:08.826Z,2.10
2018-12-27T21:30:38.023Z,2.10
2018-12-27T21:33:07.019Z,2.10
2018-12-27T21:35:36.109Z,2.10
2018-12-27T21:38:05.230Z,2.10
2018-12-27T21:40:34.437Z,2.10
2018-12-27T21:43:03.558Z,2.10
2018-12-27T21:45:36.687Z,2.00
2018-12-27T21:48:25.269Z,1.90
2018-12-27T21:50:54.296Z,1.80
2018-12-27T21:53:23.327Z,1.70
2018-12-27T21:55:52.258Z,1.70
2018-12-27T21:58:21.202Z,1.60
2018-12-27T22:00:50.234Z,1.50
2018-12-27T22:03:19.327Z,1.50
2018-12-27T22:05:48.311Z,1.50
2018-12-27T22:08:17.325Z,1.40
2018-12-27T22:10:46.408Z,1.40
2018-12-27T22:13:15.340Z,1.30
2018-12-27T22:15:44.169Z,1.30
2018-12-27T22:18:13.020Z,1.20
2018-12-27T22:20:41.900Z,1.20
2018-12-27T22:23:10.732Z,1.20
2018-12-27T22:25:39.632Z,1.10
2018-12-27T22:28:08.560Z,1.10
2018-12-27T22:30:37.468Z,1.10
2018-12-27T22:33:06.454Z,1.10
2018-12-27T22:35:35.406Z,1.20
2018-12-27T22:38:04.447Z,1.10
2018-12-27T22:40:33.372Z,1.10
2018-12-27T22:43:02.379Z,1.10
2018-12-27T22:45:31.325Z,1.10
2018-12-27T22:48:00.422Z,1.10
2018-12-27T22:50:29.403Z,1.20
2018-12-27T22:52:58.239Z,1.20
2018-12-27T22:55:27.165Z,1.20
2018-12-27T22:57:56.021Z,1.20
2018-12-27T23:00:38.861Z,1.20
2018-12-27T23:03:07.869Z,1.30
2018-12-27T23:05:36.699Z,1.40
2018-12-27T23:08:05.629Z,1.40
2018-12-27T23:10:34.631Z,1.40
2018-12-27T23:13:03.816Z,1.30
2018-12-27T23:15:32.801Z,1.30
2018-12-27T23:18:01.725Z,1.30
2018-12-27T23:20:30.632Z,1.30
2018-12-27T23:22:59.679Z,1.30
2018-12-27T23:25:28.567Z,1.30
2018-12-27T23:27:57.535Z,1.20
2018-12-27T23:30:26.457Z,1.20
2018-12-27T23:32:55.507Z,1.10
2018-12-27T23:35:24.340Z,1.10
2018-12-27T23:37:53.164Z,1.00
2018-12-27T23:40:22.144Z,1.00
2018-12-27T23:42:51.042Z,1.00
2018-12-27T23:45:20.026Z,1.00
2018-12-27T23:47:49.037Z,1.00
2018-12-27T23:50:18.210Z,0.90
2018-12-27T23:52:47.147Z,0.90
2018-12-27T23:55:16.100Z,0.80
2018-12-27T23:57:44.994Z,0.80
